Time;durP1;ratioP1;P1;durP2;ratioP2;P2;SDS_P1;SDS_P2;PMS_P1;PMS_P2;Temp;Humidity;BMP_temperature;BMP_pressure;BME280_temperature;BME280_humidity;BME280_pressure;Samples;Min_cycle;Max_cycle;Signal;HPM_P1;HPM_P2
2022/04/29 00:00:39;;;;;;;15.30;5.15;;;;;;;;;;5070070;28;20546;-66
2022/04/29 00:03:07;;;;;;;15.15;5.05;;;;;;;;;;5070286;28;20372;-66
2022/04/29 00:05:34;;;;;;;12.43;4.75;;;;;;;;;;5075259;28;20060;-66
2022/04/29 00:08:01;;;;;;;11.52;4.65;;;;;;;;;;5058905;28;20051;-66
2022/04/29 00:10:27;;;;;;;9.02;4.47;;;;;;;;;;5080529;28;20452;-66
2022/04/29 00:12:54;;;;;;;10.32;4.63;;;;;;;;;;5081626;28;20230;-66
2022/04/29 00:15:20;;;;;;;11.13;4.55;;;;;;;;;;5068179;28;20444;-66
2022/04/29 00:17:47;;;;;;;13.02;4.68;;;;;;;;;;5073626;28;20276;-66
2022/04/29 00:20:14;;;;;;;7.82;3.95;;;;;;;;;;5068065;28;20453;-66
2022/04/29 00:22:40;;;;;;;8.70;4.07;;;;;;;;;;5066675;28;20119;-66
2022/04/29 00:25:07;;;;;;;12.57;5.07;;;;;;;;;;5075301;28;20090;-66
2022/04/29 00:27:34;;;;;;;9.52;4.95;;;;;;;;;;5050388;28;20048;-66
2022/04/29 00:30:00;;;;;;;11.38;4.70;;;;;;;;;;5067456;28;20049;-66
2022/04/29 00:32:26;;;;;;;12.07;4.47;;;;;;;;;;5051864;28;20040;-66
2022/04/29 00:34:52;;;;;;;12.43;4.97;;;;;;;;;;5049741;28;20047;-66
2022/04/29 00:37:18;;;;;;;15.70;5.10;;;;;;;;;;5053772;28;20052;-66
2022/04/29 00:39:45;;;;;;;11.35;5.00;;;;;;;;;;5051214;28;21504;-66
2022/04/29 00:42:15;;;;;;;13.38;5.25;;;;;;;;;;5053481;28;20047;-66
2022/04/29 00:44:42;;;;;;;12.10;4.30;;;;;;;;;;5055950;28;20393;-66
2022/04/29 00:47:09;;;;;;;7.90;4.03;;;;;;;;;;5052040;28;20436;-66
2022/04/29 00:49:36;;;;;;;18.63;6.63;;;;;;;;;;5048850;28;20071;-66
2022/04/29 00:52:02;;;;;;;7.80;4.53;;;;;;;;;;5063051;28;20036;-66
2022/04/29 00:54:31;;;;;;;7.45;4.30;;;;;;;;;;5060819;28;20093;-66
2022/04/29 00:56:58;;;;;;;10.27;4.90;;;;;;;;;;5063762;28;20087;-66
2022/04/29 00:59:28;;;;;;;10.30;4.50;;;;;;;;;;5058860;28;20045;-66
2022/04/29 01:01:56;;;;;;;8.30;5.18;;;;;;;;;;5055578;28;20121;-66
2022/04/29 01:04:23;;;;;;;10.25;4.80;;;;;;;;;;5067096;28;20048;-66
2022/04/29 01:06:49;;;;;;;9.57;5.55;;;;;;;;;;5060531;28;20123;-66
2022/04/29 01:09:15;;;;;;;13.07;5.82;;;;;;;;;;5054002;28;20045;-66
2022/04/29 01:11:41;;;;;;;12.57;5.90;;;;;;;;;;5057239;28;20045;-66
2022/04/29 01:14:08;;;;;;;9.55;5.53;;;;;;;;;;5059949;28;20045;-66
2022/04/29 01:16:34;;;;;;;11.35;5.55;;;;;;;;;;5054524;28;20403;-66
2022/04/29 01:19:00;;;;;;;11.50;5.68;;;;;;;;;;5060820;28;20105;-66
2022/04/29 01:21:27;;;;;;;10.05;6.00;;;;;;;;;;5055589;28;20045;-66
2022/04/29 01:23:53;;;;;;;13.20;6.00;;;;;;;;;;5064768;28;20044;-66
2022/04/29 01:26:19;;;;;;;13.65;5.00;;;;;;;;;;5066023;28;20052;-66
2022/04/29 01:28:46;;;;;;;11.43;5.05;;;;;;;;;;5058192;28;20045;-66
2022/04/29 01:31:14;;;;;;;9.05;5.53;;;;;;;;;;5073527;28;20055;-66
2022/04/29 01:33:45;;;;;;;8.75;5.20;;;;;;;;;;5077514;28;20055;-66
2022/04/29 01:36:11;;;;;;;13.60;5.03;;;;;;;;;;5079648;28;20059;-66
2022/04/29 01:38:38;;;;;;;9.13;5.50;;;;;;;;;;5057683;28;20045;-66
2022/04/29 01:41:05;;;;;;;11.35;5.70;;;;;;;;;;5056609;28;20068;-66
2022/04/29 01:43:32;;;;;;;9.38;4.88;;;;;;;;;;5086256;28;20044;-66
2022/04/29 01:45:58;;;;;;;13.70;5.50;;;;;;;;;;5060788;28;20044;-66
2022/04/29 01:48:25;;;;;;;11.27;5.32;;;;;;;;;;5071227;28;20399;-66
2022/04/29 01:50:51;;;;;;;16.83;7.28;;;;;;;;;;5076329;28;20047;-66
2022/04/29 01:53:18;;;;;;;15.55;5.45;;;;;;;;;;5069146;28;20044;-66
2022/04/29 01:55:44;;;;;;;16.98;6.53;;;;;;;;;;5074901;28;20123;-66
2022/04/29 01:58:10;;;;;;;8.38;4.35;;;;;;;;;;5062880;28;20036;-66
2022/04/29 02:00:36;;;;;;;11.85;3.97;;;;;;;;;;5061543;28;20052;-66
2022/04/29 02:03:02;;;;;;;10.23;4.60;;;;;;;;;;5070663;28;20063;-66
2022/04/29 02:05:29;;;;;;;10.27;4.43;;;;;;;;;;5076883;28;20048;-66
2022/04/29 02:07:57;;;;;;;10.57;4.57;;;;;;;;;;5080641;28;20039;-66
2022/04/29 02:10:24;;;;;;;8.00;4.82;;;;;;;;;;5075935;28;20599;-66
2022/04/29 02:12:50;;;;;;;8.52;4.63;;;;;;;;;;5077005;28;20040;-66
2022/04/29 02:15:17;;;;;;;9.35;4.65;;;;;;;;;;5078086;28;20082;-66
2022/04/29 02:17:43;;;;;;;11.20;5.30;;;;;;;;;;5058595;28;20093;-66
2022/04/29 02:20:10;;;;;;;12.18;5.25;;;;;;;;;;5055520;28;20364;-66
2022/04/29 02:22:36;;;;;;;15.98;5.80;;;;;;;;;;5065628;28;20072;-66
2022/04/29 02:25:02;;;;;;;8.80;5.50;;;;;;;;;;5059608;28;20145;-66
2022/04/29 02:27:28;;;;;;;12.40;6.25;;;;;;;;;;5054161;28;20078;-66
2022/04/29 02:29:55;;;;;;;10.25;5.45;;;;;;;;;;5059255;28;20553;-66
2022/04/29 02:32:21;;;;;;;7.85;5.05;;;;;;;;;;5067972;28;20209;-66
2022/04/29 02:34:47;;;;;;;13.45;6.22;;;;;;;;;;5067590;28;20068;-66
2022/04/29 02:37:13;;;;;;;9.02;5.63;;;;;;;;;;5074510;28;20043;-66
2022/04/29 02:39:39;;;;;;;11.50;6.15;;;;;;;;;;5061511;28;20041;-66
2022/04/29 02:42:07;;;;;;;11.43;5.60;;;;;;;;;;5056560;28;20502;-66
2022/04/29 02:44:33;;;;;;;11.95;5.30;;;;;;;;;;5077081;28;20051;-66
2022/04/29 02:47:07;;;;;;;12.35;5.90;;;;;;;;;;5061380;28;20189;-65
2022/04/29 02:49:34;;;;;;;17.58;7.50;;;;;;;;;;5058995;28;20044;-65
2022/04/29 02:52:00;;;;;;;12.30;6.00;;;;;;;;;;5082952;28;20528;-65
2022/04/29 02:54:26;;;;;;;9.15;6.05;;;;;;;;;;5075898;28;20415;-65
2022/04/29 02:56:53;;;;;;;10.93;6.22;;;;;;;;;;5059097;28;20131;-65
2022/04/29 02:59:19;;;;;;;16.52;7.00;;;;;;;;;;5088675;28;20047;-65
2022/04/29 03:01:46;;;;;;;11.32;6.10;;;;;;;;;;5045107;28;20100;-65
2022/04/29 03:04:12;;;;;;;13.85;6.22;;;;;;;;;;5073248;28;20369;-65
2022/04/29 03:06:39;;;;;;;10.15;6.22;;;;;;;;;;5071652;28;20048;-65
2022/04/29 03:09:05;;;;;;;10.23;6.05;;;;;;;;;;5074264;28;20040;-65
2022/04/29 03:11:31;;;;;;;11.95;6.47;;;;;;;;;;5069884;28;20048;-65
2022/04/29 03:13:57;;;;;;;13.40;6.63;;;;;;;;;;5073132;28;20041;-65
2022/04/29 03:16:23;;;;;;;12.80;6.38;;;;;;;;;;5072543;28;20046;-65
2022/04/29 03:18:50;;;;;;;13.75;6.30;;;;;;;;;;5078273;28;20380;-66
2022/04/29 03:21:18;;;;;;;12.57;6.57;;;;;;;;;;5079599;28;20394;-65
2022/04/29 03:23:46;;;;;;;14.98;7.30;;;;;;;;;;5057172;28;20133;-65
2022/04/29 03:26:12;;;;;;;10.68;6.88;;;;;;;;;;5055876;28;20039;-66
2022/04/29 03:28:38;;;;;;;14.07;6.88;;;;;;;;;;5074573;28;20131;-65
2022/04/29 03:31:05;;;;;;;13.35;6.80;;;;;;;;;;5076687;28;20075;-66
2022/04/29 03:33:32;;;;;;;13.05;7.47;;;;;;;;;;5073447;28;20055;-65
2022/04/29 03:35:58;;;;;;;11.30;7.25;;;;;;;;;;5059246;28;20040;-65
2022/04/29 03:38:24;;;;;;;13.18;6.88;;;;;;;;;;5074632;28;20044;-65
2022/04/29 03:40:51;;;;;;;11.73;6.43;;;;;;;;;;5053958;28;20177;-65
2022/04/29 03:43:17;;;;;;;12.63;6.85;;;;;;;;;;5075641;28;20041;-65
2022/04/29 03:45:44;;;;;;;8.93;7.25;;;;;;;;;;5057241;28;20052;-65
2022/04/29 03:48:11;;;;;;;16.90;6.72;;;;;;;;;;5076750;28;20033;-65
2022/04/29 03:50:38;;;;;;;15.18;6.43;;;;;;;;;;5053645;28;20181;-65
2022/04/29 03:53:05;;;;;;;12.00;6.78;;;;;;;;;;5068503;28;20047;-65
2022/04/29 03:55:32;;;;;;;13.20;7.20;;;;;;;;;;5052473;28;20048;-65
2022/04/29 03:57:59;;;;;;;17.35;7.57;;;;;;;;;;5062581;28;20116;-65
2022/04/29 04:00:26;;;;;;;11.70;7.40;;;;;;;;;;5085391;28;20071;-65
2022/04/29 04:02:52;;;;;;;13.38;7.15;;;;;;;;;;5078516;28;20109;-65
2022/04/29 04:05:18;;;;;;;17.05;7.03;;;;;;;;;;5075640;28;20115;-65
2022/04/29 04:07:45;;;;;;;12.68;7.32;;;;;;;;;;5075220;28;20032;-65
2022/04/29 04:10:12;;;;;;;12.73;7.78;;;;;;;;;;5082451;28;20040;-65
2022/04/29 04:12:39;;;;;;;10.85;7.45;;;;;;;;;;5060726;28;20037;-65
2022/04/29 04:15:06;;;;;;;12.48;7.72;;;;;;;;;;5064811;28;20556;-65
2022/04/29 04:17:32;;;;;;;13.93;7.78;;;;;;;;;;5073672;28;20063;-65
2022/04/29 04:19:58;;;;;;;12.13;7.10;;;;;;;;;;5075431;28;20097;-65
2022/04/29 04:22:24;;;;;;;12.10;8.10;;;;;;;;;;5072238;28;20112;-65
2022/04/29 04:24:51;;;;;;;13.68;7.68;;;;;;;;;;5084721;28;20037;-65
2022/04/29 04:27:17;;;;;;;12.90;8.10;;;;;;;;;;5066212;28;20044;-65
2022/04/29 04:29:43;;;;;;;12.90;7.60;;;;;;;;;;5088152;28;20084;-65
2022/04/29 04:32:09;;;;;;;13.65;7.28;;;;;;;;;;5076959;28;20045;-65
2022/04/29 04:34:51;;;;;;;14.13;8.25;;;;;;;;;;5063132;28;20076;-65
2022/04/29 04:37:18;;;;;;;12.48;7.72;;;;;;;;;;5079127;28;20227;-65
2022/04/29 04:39:44;;;;;;;14.90;7.95;;;;;;;;;;5085274;28;20036;-65
2022/04/29 04:42:10;;;;;;;12.20;7.13;;;;;;;;;;5051398;28;20045;-65
2022/04/29 04:44:37;;;;;;;14.27;8.13;;;;;;;;;;5059860;28;20116;-65
2022/04/29 04:47:03;;;;;;;13.60;6.90;;;;;;;;;;5059930;28;20040;-65
2022/04/29 04:49:30;;;;;;;12.05;7.70;;;;;;;;;;5055635;28;20087;-65
2022/04/29 04:51:56;;;;;;;13.57;7.35;;;;;;;;;;5055903;28;20037;-65
2022/04/29 04:54:22;;;;;;;10.90;6.80;;;;;;;;;;5088678;28;20040;-65
2022/04/29 04:56:48;;;;;;;17.77;7.35;;;;;;;;;;5083687;28;20036;-65
2022/04/29 04:59:14;;;;;;;16.45;7.38;;;;;;;;;;5075272;28;20118;-65
2022/04/29 05:01:40;;;;;;;14.15;7.63;;;;;;;;;;5058350;28;20484;-65
2022/04/29 05:04:07;;;;;;;10.25;7.35;;;;;;;;;;5072187;28;20036;-65
2022/04/29 05:06:33;;;;;;;12.15;7.38;;;;;;;;;;5071481;28;20356;-65
2022/04/29 05:08:59;;;;;;;13.02;9.00;;;;;;;;;;5075725;28;20052;-65
2022/04/29 05:11:25;;;;;;;14.07;8.25;;;;;;;;;;5076175;28;20049;-65
2022/04/29 05:13:51;;;;;;;14.25;8.45;;;;;;;;;;5081050;28;20036;-65
2022/04/29 05:16:17;;;;;;;16.67;7.47;;;;;;;;;;5089182;28;20040;-66
2022/04/29 05:18:44;;;;;;;15.02;7.85;;;;;;;;;;5055184;28;20047;-66
2022/04/29 05:21:10;;;;;;;11.57;7.88;;;;;;;;;;5078537;28;20044;-65
2022/04/29 05:23:36;;;;;;;11.50;8.05;;;;;;;;;;5058561;28;20043;-65
2022/04/29 05:26:03;;;;;;;13.60;8.27;;;;;;;;;;5080005;28;20067;-66
2022/04/29 05:28:29;;;;;;;12.57;8.57;;;;;;;;;;5068214;28;20056;-66
2022/04/29 05:30:56;;;;;;;13.25;8.48;;;;;;;;;;5058773;28;20055;-66
2022/04/29 05:33:24;;;;;;;10.73;7.95;;;;;;;;;;5057964;28;20110;-66
2022/04/29 05:35:50;;;;;;;15.30;7.85;;;;;;;;;;5057655;28;20047;-66
2022/04/29 05:38:17;;;;;;;13.88;7.90;;;;;;;;;;5051701;28;20045;-66
2022/04/29 05:43:28;;;;;;;12.45;7.18;;;;;;;;;;5054100;28;20067;-66
2022/04/29 05:45:55;;;;;;;15.15;7.68;;;;;;;;;;5056513;28;20060;-66
2022/04/29 05:48:21;;;;;;;14.57;7.65;;;;;;;;;;5053430;28;20076;-66
2022/04/29 05:50:48;;;;;;;11.13;8.10;;;;;;;;;;5063971;28;20071;-66
2022/04/29 05:53:15;;;;;;;10.55;7.30;;;;;;;;;;5052383;28;20055;-66
2022/04/29 05:55:42;;;;;;;11.32;6.95;;;;;;;;;;5056764;28;20412;-66
2022/04/29 05:58:08;;;;;;;10.45;7.22;;;;;;;;;;5053762;28;20029;-66
2022/04/29 06:00:35;;;;;;;14.05;7.07;;;;;;;;;;5052340;28;20076;-66
2022/04/29 06:03:02;;;;;;;17.63;7.43;;;;;;;;;;5055943;28;20037;-66
2022/04/29 06:05:29;;;;;;;12.07;7.35;;;;;;;;;;5052473;28;20080;-66
2022/04/29 06:07:55;;;;;;;13.43;6.60;;;;;;;;;;5056065;28;20029;-66
2022/04/29 06:10:21;;;;;;;10.98;6.22;;;;;;;;;;5054535;28;20123;-66
2022/04/29 06:12:48;;;;;;;11.52;7.07;;;;;;;;;;5052909;28;20045;-65
2022/04/29 06:15:16;;;;;;;13.32;6.80;;;;;;;;;;5051647;28;20060;-66
2022/04/29 06:17:42;;;;;;;15.73;7.53;;;;;;;;;;5055032;28;20484;-66
2022/04/29 06:20:09;;;;;;;10.25;6.97;;;;;;;;;;5055694;28;20392;-66
2022/04/29 06:22:35;;;;;;;15.32;7.88;;;;;;;;;;5058856;28;20037;-66
2022/04/29 06:25:01;;;;;;;14.93;6.20;;;;;;;;;;5059503;28;20049;-66
2022/04/29 06:27:27;;;;;;;14.55;6.22;;;;;;;;;;5056116;28;20044;-66
2022/04/29 06:29:53;;;;;;;12.15;6.97;;;;;;;;;;5050552;28;20059;-66
2022/04/29 06:32:20;;;;;;;15.30;6.40;;;;;;;;;;5055703;28;20049;-65
2022/04/29 06:34:49;;;;;;;14.02;5.55;;;;;;;;;;5056712;28;20068;-66
2022/04/29 06:37:16;;;;;;;14.35;5.82;;;;;;;;;;5055315;28;20775;-65
2022/04/29 06:39:42;;;;;;;10.70;5.95;;;;;;;;;;5057661;28;20573;-66
2022/04/29 06:42:08;;;;;;;13.25;5.40;;;;;;;;;;5056373;28;20383;-65
2022/04/29 06:44:35;;;;;;;10.98;4.70;;;;;;;;;;5059452;28;20523;-65
2022/04/29 06:47:01;;;;;;;9.38;4.53;;;;;;;;;;5061970;28;20568;-65
2022/04/29 06:49:27;;;;;;;7.25;3.90;;;;;;;;;;5063872;28;20037;-65
2022/04/29 06:51:53;;;;;;;7.65;3.90;;;;;;;;;;5059379;28;20049;-65
2022/04/29 06:54:19;;;;;;;7.53;3.17;;;;;;;;;;5056397;28;20048;-66
2022/04/29 06:56:45;;;;;;;6.95;3.05;;;;;;;;;;5064559;28;20070;-66
2022/04/29 06:59:11;;;;;;;7.55;3.05;;;;;;;;;;5061033;28;20090;-65
2022/04/29 07:01:38;;;;;;;7.85;2.45;;;;;;;;;;5061540;28;20136;-66
2022/04/29 07:04:04;;;;;;;9.63;2.55;;;;;;;;;;5063791;28;20041;-66
2022/04/29 07:06:31;;;;;;;4.85;2.17;;;;;;;;;;5054608;28;20044;-66
2022/04/29 07:08:58;;;;;;;8.40;2.58;;;;;;;;;;5060003;28;20058;-66
2022/04/29 07:11:25;;;;;;;12.18;2.90;;;;;;;;;;5061653;28;20487;-66
2022/04/29 07:13:52;;;;;;;6.05;2.13;;;;;;;;;;5057593;28;20055;-66
2022/04/29 07:16:19;;;;;;;6.30;2.78;;;;;;;;;;5052935;28;20507;-66
2022/04/29 07:18:45;;;;;;;9.55;2.50;;;;;;;;;;5055220;28;20057;-66
2022/04/29 07:21:11;;;;;;;9.95;2.20;;;;;;;;;;5064372;28;20407;-66
2022/04/29 07:23:38;;;;;;;7.00;1.90;;;;;;;;;;5059713;28;20385;-66
2022/04/29 07:26:04;;;;;;;8.55;2.40;;;;;;;;;;5055134;28;20047;-66
2022/04/29 07:28:30;;;;;;;9.45;3.22;;;;;;;;;;5046751;28;20068;-66
2022/04/29 07:30:57;;;;;;;8.43;2.63;;;;;;;;;;5052054;28;20115;-66
2022/04/29 07:33:23;;;;;;;6.47;2.45;;;;;;;;;;5029403;28;20068;-65
2022/04/29 07:41:46;;;;;;;6.28;2.15;;;;;;;;;;5001239;28;20050;-66
2022/04/29 07:44:13;;;;;;;7.13;2.38;;;;;;;;;;4994208;28;20336;-65
2022/04/29 07:46:40;;;;;;;11.07;3.15;;;;;;;;;;5000819;28;20153;-65
2022/04/29 07:49:06;;;;;;;6.57;2.30;;;;;;;;;;4998250;28;20037;-66
2022/04/29 07:51:33;;;;;;;11.07;3.17;;;;;;;;;;4982346;28;20057;-65
2022/04/29 07:53:59;;;;;;;6.78;2.10;;;;;;;;;;5002198;28;20506;-65
2022/04/29 07:56:26;;;;;;;5.75;2.08;;;;;;;;;;4998940;28;20073;-65
2022/04/29 07:58:55;;;;;;;6.40;2.47;;;;;;;;;;4997826;28;20068;-65
2022/04/29 08:01:21;;;;;;;10.77;2.70;;;;;;;;;;4993153;28;20038;-66
2022/04/29 08:03:47;;;;;;;8.05;2.97;;;;;;;;;;5000862;28;20046;-65
2022/04/29 08:06:13;;;;;;;8.07;2.50;;;;;;;;;;4999404;28;20038;-66
2022/04/29 08:08:40;;;;;;;5.85;2.55;;;;;;;;;;4995205;28;20048;-65
2022/04/29 08:11:07;;;;;;;7.00;2.90;;;;;;;;;;4995325;28;20050;-66
2022/04/29 08:13:34;;;;;;;7.28;2.42;;;;;;;;;;4993253;28;20439;-65
2022/04/29 08:16:01;;;;;;;4.22;1.90;;;;;;;;;;4995264;28;20054;-65
2022/04/29 08:18:28;;;;;;;8.77;2.47;;;;;;;;;;4995901;28;20121;-65
2022/04/29 08:20:54;;;;;;;7.55;2.47;;;;;;;;;;4996662;28;20115;-65
2022/04/29 08:23:20;;;;;;;9.18;2.88;;;;;;;;;;4998275;28;20399;-65
2022/04/29 08:25:46;;;;;;;6.28;2.47;;;;;;;;;;4996089;28;20164;-65
2022/04/29 08:28:13;;;;;;;6.13;2.38;;;;;;;;;;5000695;28;20049;-64
2022/04/29 08:30:39;;;;;;;7.47;2.40;;;;;;;;;;5010543;28;20072;-66
2022/04/29 08:33:06;;;;;;;11.70;2.88;;;;;;;;;;4987953;28;20061;-65
2022/04/29 08:35:32;;;;;;;9.70;2.80;;;;;;;;;;5015379;28;20056;-65
2022/04/29 08:37:58;;;;;;;7.55;2.20;;;;;;;;;;5006330;28;20124;-65
2022/04/29 08:40:25;;;;;;;9.43;2.55;;;;;;;;;;5004418;28;20049;-65
2022/04/29 08:42:53;;;;;;;11.07;2.70;;;;;;;;;;5000718;28;20049;-65
2022/04/29 08:45:19;;;;;;;7.30;2.58;;;;;;;;;;5016309;28;21787;-65
2022/04/29 08:47:47;;;;;;;7.53;2.58;;;;;;;;;;5017560;28;20070;-65
2022/04/29 08:50:15;;;;;;;10.18;2.75;;;;;;;;;;5022808;28;20048;-77
2022/04/29 08:52:41;;;;;;;6.60;2.55;;;;;;;;;;5006380;28;20892;-65
2022/04/29 09:00:41;;;;;;;5.53;2.58;;;;;;;;;;5022749;28;20042;-65
2022/04/29 09:03:16;;;;;;;11.55;2.72;;;;;;;;;;5003321;28;20492;-65
2022/04/29 09:05:42;;;;;;;4.63;2.90;;;;;;;;;;5024292;28;20167;-65
2022/04/29 09:08:12;;;;;;;6.65;3.20;;;;;;;;;;5014001;28;20067;-65
2022/04/29 09:10:46;;;;;;;9.60;3.40;;;;;;;;;;5025822;28;20563;-65
2022/04/29 09:13:13;;;;;;;8.02;3.70;;;;;;;;;;5007710;28;20041;-65
2022/04/29 09:15:47;;;;;;;7.95;3.17;;;;;;;;;;5010362;28;20614;-66
2022/04/29 09:18:14;;;;;;;7.00;3.60;;;;;;;;;;5014212;28;20038;-65
2022/04/29 09:20:41;;;;;;;9.07;3.63;;;;;;;;;;5025530;28;20064;-65
2022/04/29 09:23:09;;;;;;;7.68;3.25;;;;;;;;;;5027243;28;20052;-65
2022/04/29 09:25:36;;;;;;;8.10;3.00;;;;;;;;;;5017579;28;20041;-65
2022/04/29 09:28:03;;;;;;;8.68;3.05;;;;;;;;;;5011134;28;20140;-65
2022/04/29 09:30:37;;;;;;;8.48;3.08;;;;;;;;;;4999328;28;20053;-65
2022/04/29 09:33:04;;;;;;;6.05;2.95;;;;;;;;;;5021345;28;20463;-65
2022/04/29 09:35:37;;;;;;;7.55;3.50;;;;;;;;;;5020835;28;20175;-65
2022/04/29 09:40:49;;;;;;;7.65;3.67;;;;;;;;;;5010239;28;20049;-65
2022/04/29 09:43:15;;;;;;;12.77;3.60;;;;;;;;;;5010789;28;20053;-65
2022/04/29 09:45:42;;;;;;;9.82;3.67;;;;;;;;;;5020416;28;20050;-66
2022/04/29 09:48:09;;;;;;;7.57;3.60;;;;;;;;;;4998558;28;20048;-65
2022/04/29 09:50:49;;;;;;;7.90;2.90;;;;;;;;;;5021701;28;20037;-65
2022/04/29 09:53:17;;;;;;;8.30;2.78;;;;;;;;;;5024672;28;20042;-65
2022/04/29 09:56:03;;;;;;;7.40;2.53;;;;;;;;;;5002303;28;20046;-65
2022/04/29 09:58:29;;;;;;;7.28;2.90;;;;;;;;;;5020916;28;20128;-65
2022/04/29 10:00:56;;;;;;;9.77;2.80;;;;;;;;;;5019991;28;20042;-65
2022/04/29 10:03:23;;;;;;;8.70;2.63;;;;;;;;;;5003080;28;20490;-65
2022/04/29 10:05:50;;;;;;;5.70;3.03;;;;;;;;;;5020239;28;20102;-65
2022/04/29 10:08:17;;;;;;;8.43;3.25;;;;;;;;;;5009046;28;20046;-66
2022/04/29 10:10:44;;;;;;;6.82;3.17;;;;;;;;;;5017707;28;20041;-65
2022/04/29 10:13:11;;;;;;;11.52;3.75;;;;;;;;;;5023606;28;20247;-66
2022/04/29 10:15:38;;;;;;;9.35;2.97;;;;;;;;;;5021452;28;20053;-66
2022/04/29 10:23:36;;;;;;;13.95;3.92;;;;;;;;;;5021138;28;20407;-66
2022/04/29 10:26:03;;;;;;;10.45;3.83;;;;;;;;;;5023774;28;20196;-66
2022/04/29 10:28:29;;;;;;;9.23;3.90;;;;;;;;;;5005484;28;20037;-66
2022/04/29 10:31:00;;;;;;;7.45;3.50;;;;;;;;;;5022397;28;20061;-65
2022/04/29 10:33:27;;;;;;;7.25;3.33;;;;;;;;;;5018619;28;20569;-65
2022/04/29 10:35:54;;;;;;;11.18;3.90;;;;;;;;;;5018595;28;20081;-65
2022/04/29 10:38:31;;;;;;;10.32;3.20;;;;;;;;;;5013819;28;20482;-65
2022/04/29 10:41:07;;;;;;;7.05;3.38;;;;;;;;;;5018037;28;20079;-65
2022/04/29 10:43:38;;;;;;;7.20;2.83;;;;;;;;;;5019106;28;20042;-65
2022/04/29 10:46:04;;;;;;;8.02;2.88;;;;;;;;;;5019589;28;20050;-65
2022/04/29 10:48:35;;;;;;;9.15;3.90;;;;;;;;;;5009036;28;20080;-65
2022/04/29 10:51:09;;;;;;;7.72;2.72;;;;;;;;;;5020607;28;20096;-65
2022/04/29 10:53:37;;;;;;;7.47;2.72;;;;;;;;;;5023507;28;20160;-65
2022/04/29 10:56:22;;;;;;;5.90;2.95;;;;;;;;;;5020157;28;20456;-65
2022/04/29 10:58:48;;;;;;;10.35;2.83;;;;;;;;;;5016846;28;20051;-65
2022/04/29 11:01:14;;;;;;;6.43;2.50;;;;;;;;;;5022038;28;20386;-65
2022/04/29 11:03:43;;;;;;;11.43;3.97;;;;;;;;;;5018627;28;20107;-65
2022/04/29 11:06:11;;;;;;;8.25;2.67;;;;;;;;;;5001255;28;20122;-65
2022/04/29 11:08:38;;;;;;;8.18;2.80;;;;;;;;;;5007834;28;20044;-65
2022/04/29 11:11:04;;;;;;;8.25;2.60;;;;;;;;;;5017013;28;20045;-65
2022/04/29 11:13:34;;;;;;;9.73;2.40;;;;;;;;;;5019037;28;20057;-66
2022/04/29 11:16:08;;;;;;;6.65;2.40;;;;;;;;;;5009301;28;20045;-65
2022/04/29 11:18:35;;;;;;;8.70;2.70;;;;;;;;;;5016276;28;20053;-65
2022/04/29 11:24:40;;;;;;;7.25;2.88;;;;;;;;;;4997595;28;20033;-65
2022/04/29 11:26:43;;;;;;;9.40;2.90;;;;;;;;;;5011888;28;20473;-65
2022/04/29 11:29:10;;;;;;;6.07;2.20;;;;;;;;;;5023646;28;20045;-66
2022/04/29 11:31:37;;;;;;;5.80;2.40;;;;;;;;;;5018637;28;20072;-66
2022/04/29 11:34:10;;;;;;;8.27;2.97;;;;;;;;;;5018961;28;20045;-66
2022/04/29 11:36:37;;;;;;;5.50;2.72;;;;;;;;;;5022944;28;20045;-66
2022/04/29 11:39:08;;;;;;;10.43;2.33;;;;;;;;;;5003987;28;20045;-66
2022/04/29 11:41:34;;;;;;;5.75;2.75;;;;;;;;;;5005692;28;20103;-66
2022/04/29 11:44:02;;;;;;;7.65;3.28;;;;;;;;;;5015354;28;20042;-66
2022/04/29 11:46:28;;;;;;;9.02;2.80;;;;;;;;;;5027277;28;20050;-66
2022/04/29 11:48:57;;;;;;;7.85;3.03;;;;;;;;;;5022426;28;20379;-66
2022/04/29 11:51:24;;;;;;;7.05;2.60;;;;;;;;;;5014642;28;20133;-66
2022/04/29 11:53:59;;;;;;;8.75;2.97;;;;;;;;;;5022983;28;20073;-66
2022/04/29 11:56:35;;;;;;;8.27;2.70;;;;;;;;;;4999519;28;20053;-66
2022/04/29 11:59:04;;;;;;;6.68;2.42;;;;;;;;;;5024576;28;20049;-66
2022/04/29 12:01:30;;;;;;;7.03;3.00;;;;;;;;;;5024786;28;20045;-66
2022/04/29 12:03:57;;;;;;;6.88;2.67;;;;;;;;;;5025037;28;20087;-66
2022/04/29 12:06:23;;;;;;;4.97;2.42;;;;;;;;;;5022396;28;20037;-66
2022/04/29 12:08:50;;;;;;;7.80;3.33;;;;;;;;;;5019999;28;20046;-66
2022/04/29 12:11:26;;;;;;;4.95;2.63;;;;;;;;;;5014809;28;20057;-66
2022/04/29 12:13:52;;;;;;;8.07;2.67;;;;;;;;;;4992479;28;20048;-66
2022/04/29 12:16:19;;;;;;;12.82;3.58;;;;;;;;;;5004921;28;20041;-66
2022/04/29 12:18:46;;;;;;;6.63;2.78;;;;;;;;;;5021274;28;20507;-66
2022/04/29 12:21:13;;;;;;;7.25;2.88;;;;;;;;;;5011701;28;20042;-66
2022/04/29 12:23:39;;;;;;;6.30;2.35;;;;;;;;;;5017447;28;20449;-66
2022/04/29 12:26:07;;;;;;;6.95;3.00;;;;;;;;;;4995766;28;20049;-65
2022/04/29 12:28:35;;;;;;;5.65;2.60;;;;;;;;;;5015573;28;20044;-65
2022/04/29 12:36:48;;;;;;;5.35;2.40;;;;;;;;;;5008669;28;20052;-66
2022/04/29 12:39:15;;;;;;;9.38;2.72;;;;;;;;;;5000078;28;20064;-66
2022/04/29 12:41:42;;;;;;;8.30;2.58;;;;;;;;;;5009154;28;20033;-66
2022/04/29 12:44:09;;;;;;;7.85;2.90;;;;;;;;;;5008954;28;20046;-66
2022/04/29 12:46:36;;;;;;;8.43;3.03;;;;;;;;;;5015050;28;20045;-66
2022/04/29 12:49:02;;;;;;;6.90;2.70;;;;;;;;;;5016041;28;20419;-66
2022/04/29 12:51:32;;;;;;;6.03;2.67;;;;;;;;;;5002241;28;20037;-66
2022/04/29 12:54:00;;;;;;;7.32;2.75;;;;;;;;;;5001710;28;20386;-66
2022/04/29 12:56:27;;;;;;;8.52;2.92;;;;;;;;;;5000215;28;20045;-66
2022/04/29 12:58:53;;;;;;;6.95;2.90;;;;;;;;;;5020994;28;20060;-66
2022/04/29 13:01:20;;;;;;;8.20;2.80;;;;;;;;;;5001421;28;20053;-66
2022/04/29 13:03:54;;;;;;;7.13;3.10;;;;;;;;;;5015201;28;20041;-65
2022/04/29 13:06:20;;;;;;;;;;;;;;;;;;5021522;28;20188;-76
2022/04/29 13:08:48;;;;;;;18.67;3.90;;;;;;;;;;5014447;28;20442;-66
2022/04/29 13:11:16;;;;;;;7.28;3.65;;;;;;;;;;5014064;28;20054;-67
2022/04/29 13:13:43;;;;;;;11.82;4.32;;;;;;;;;;5023439;28;20061;-66
2022/04/29 13:16:09;;;;;;;9.32;3.95;;;;;;;;;;5009736;28;20513;-66
2022/04/29 13:18:35;;;;;;;8.40;4.70;;;;;;;;;;5017606;28;20139;-66
2022/04/29 13:21:06;;;;;;;7.93;4.03;;;;;;;;;;5007347;28;20053;-70
2022/04/29 13:23:33;;;;;;;7.53;3.55;;;;;;;;;;4998155;28;20057;-66
2022/04/29 13:25:59;;;;;;;8.88;3.75;;;;;;;;;;5001350;28;20049;-66
2022/04/29 13:28:26;;;;;;;12.02;4.55;;;;;;;;;;5014964;28;20041;-66
2022/04/29 13:30:52;;;;;;;10.38;3.90;;;;;;;;;;5016697;28;20118;-66
2022/04/29 13:33:18;;;;;;;10.77;4.72;;;;;;;;;;5004294;28;20482;-66
2022/04/29 13:35:45;;;;;;;7.47;3.70;;;;;;;;;;5009022;28;20459;-67
2022/04/29 13:38:11;;;;;;;7.03;3.00;;;;;;;;;;5000152;28;20045;-66
2022/04/29 13:40:37;;;;;;;9.35;3.22;;;;;;;;;;5019980;28;20408;-66
2022/04/29 13:43:05;;;;;;;10.43;4.60;;;;;;;;;;5020829;28;20494;-66
2022/04/29 13:45:31;;;;;;;6.13;4.18;;;;;;;;;;5017696;28;20042;-65
2022/04/29 13:47:57;;;;;;;11.43;5.95;;;;;;;;;;5017660;28;20112;-66
2022/04/29 13:50:24;;;;;;;10.77;5.30;;;;;;;;;;5012492;28;20037;-66
2022/04/29 13:55:36;;;;;;;9.98;5.75;;;;;;;;;;5008058;28;20110;-66
2022/04/29 13:58:03;;;;;;;11.30;5.38;;;;;;;;;;5007165;28;20052;-66
2022/04/29 14:00:29;;;;;;;9.93;5.65;;;;;;;;;;5020159;28;20076;-66
2022/04/29 14:02:55;;;;;;;11.45;4.70;;;;;;;;;;5020238;28;20504;-66
2022/04/29 14:05:24;;;;;;;9.00;3.95;;;;;;;;;;5008924;28;20050;-66
2022/04/29 14:07:50;;;;;;;9.50;4.15;;;;;;;;;;5021299;28;20038;-66
2022/04/29 14:10:16;;;;;;;9.57;4.95;;;;;;;;;;5023668;28;20053;-66
2022/04/29 14:12:43;;;;;;;9.20;5.20;;;;;;;;;;5018139;28;20505;-66
2022/04/29 14:15:10;;;;;;;9.40;5.13;;;;;;;;;;5022590;28;20116;-66
2022/04/29 14:17:36;;;;;;;11.25;4.80;;;;;;;;;;5002034;28;20046;-66
2022/04/29 14:20:03;;;;;;;10.60;4.43;;;;;;;;;;5016694;28;20045;-66
2022/04/29 14:22:29;;;;;;;15.07;5.63;;;;;;;;;;5023600;28;20179;-66
2022/04/29 14:24:55;;;;;;;10.40;5.90;;;;;;;;;;5011776;28;20091;-66
2022/04/29 14:27:21;;;;;;;11.50;6.10;;;;;;;;;;5018810;28;20033;-66
2022/04/29 14:29:48;;;;;;;13.65;5.78;;;;;;;;;;4999672;28;20458;-66
2022/04/29 14:32:14;;;;;;;11.88;6.60;;;;;;;;;;5021633;28;20096;-66
2022/04/29 14:34:42;;;;;;;15.35;6.70;;;;;;;;;;5005633;28;20486;-66
2022/04/29 14:37:08;;;;;;;14.00;5.97;;;;;;;;;;5002709;28;20282;-66
2022/04/29 14:39:34;;;;;;;14.27;5.65;;;;;;;;;;5023331;28;20034;-66
2022/04/29 14:42:01;;;;;;;11.40;5.40;;;;;;;;;;5016031;28;20042;-66
2022/04/29 14:44:29;;;;;;;9.85;5.53;;;;;;;;;;4998993;28;20042;-66
2022/04/29 14:46:55;;;;;;;13.70;6.20;;;;;;;;;;5019265;28;20050;-66
2022/04/29 14:49:22;;;;;;;12.63;5.20;;;;;;;;;;5020378;28;20092;-66
2022/04/29 14:51:49;;;;;;;12.43;5.65;;;;;;;;;;5022827;28;20045;-66
2022/04/29 14:54:15;;;;;;;14.05;5.43;;;;;;;;;;5023537;28;20057;-66
2022/04/29 14:56:42;;;;;;;11.18;4.22;;;;;;;;;;5007508;28;20386;-66
2022/04/29 14:59:08;;;;;;;9.50;4.47;;;;;;;;;;5022748;28;20347;-66
2022/04/29 15:01:34;;;;;;;9.43;4.15;;;;;;;;;;5002537;28;20042;-65
2022/04/29 15:04:01;;;;;;;10.00;4.50;;;;;;;;;;5021766;28;20128;-66
2022/04/29 15:06:27;;;;;;;8.32;5.07;;;;;;;;;;5018065;28;20053;-66
2022/04/29 15:15:34;;;;;;;11.85;4.32;;;;;;;;;;5021272;28;20064;-66